sensor_id;sensor_type;location;lat;lon;timestamp;temperature;humidity
17066;DHT22;23120;52.336;21.182;2023-05-10T00:00:14;6.60;56.00
17066;DHT22;23120;52.336;21.182;2023-05-10T00:02:41;6.50;55.90
17066;DHT22;23120;52.336;21.182;2023-05-10T00:05:10;6.50;55.90
17066;DHT22;23120;52.336;21.182;2023-05-10T00:07:36;6.50;55.90
17066;DHT22;23120;52.336;21.182;2023-05-10T00:10:06;6.40;56.70
17066;DHT22;23120;52.336;21.182;2023-05-10T00:12:33;6.40;56.70
17066;DHT22;23120;52.336;21.182;2023-05-10T00:15:00;6.30;56.90
17066;DHT22;23120;52.336;21.182;2023-05-10T00:17:27;6.30;56.40
17066;DHT22;23120;52.336;21.182;2023-05-10T00:19:54;6.30;56.90
17066;DHT22;23120;52.336;21.182;2023-05-10T00:22:23;6.20;57.00
17066;DHT22;23120;52.336;21.182;2023-05-10T00:24:50;6.20;56.90
17066;DHT22;23120;52.336;21.182;2023-05-10T00:27:19;6.20;57.20
17066;DHT22;23120;52.336;21.182;2023-05-10T00:29:47;6.10;57.30
17066;DHT22;23120;52.336;21.182;2023-05-10T00:32:16;6.00;57.50
17066;DHT22;23120;52.336;21.182;2023-05-10T00:34:43;6.00;57.80
17066;DHT22;23120;52.336;21.182;2023-05-10T00:37:11;6.00;57.40
17066;DHT22;23120;52.336;21.182;2023-05-10T00:39:38;5.90;57.40
17066;DHT22;23120;52.336;21.182;2023-05-10T00:42:07;5.90;57.70
17066;DHT22;23120;52.336;21.182;2023-05-10T00:44:36;5.80;57.90
17066;DHT22;23120;52.336;21.182;2023-05-10T00:47:05;5.80;58.30
17066;DHT22;23120;52.336;21.182;2023-05-10T00:49:34;5.80;58.30
17066;DHT22;23120;52.336;21.182;2023-05-10T00:52:02;5.70;58.10
17066;DHT22;23120;52.336;21.182;2023-05-10T00:54:30;5.70;58.60
17066;DHT22;23120;52.336;21.182;2023-05-10T00:56:57;5.70;58.60
17066;DHT22;23120;52.336;21.182;2023-05-10T00:59:24;5.60;58.60
17066;DHT22;23120;52.336;21.182;2023-05-10T01:01:53;5.60;58.50
17066;DHT22;23120;52.336;21.182;2023-05-10T01:04:20;5.60;58.50
17066;DHT22;23120;52.336;21.182;2023-05-10T01:06:51;5.50;58.30
17066;DHT22;23120;52.336;21.182;2023-05-10T01:09:18;5.50;58.50
17066;DHT22;23120;52.336;21.182;2023-05-10T01:12:10;5.50;58.90
17066;DHT22;23120;52.336;21.182;2023-05-10T01:14:40;5.40;58.50
17066;DHT22;23120;52.336;21.182;2023-05-10T01:17:10;5.40;58.80
17066;DHT22;23120;52.336;21.182;2023-05-10T01:19:37;5.40;59.00
17066;DHT22;23120;52.336;21.182;2023-05-10T01:22:13;5.30;59.10
17066;DHT22;23120;52.336;21.182;2023-05-10T01:25:11;5.30;59.30
17066;DHT22;23120;52.336;21.182;2023-05-10T01:28:16;5.30;59.20
17066;DHT22;23120;52.336;21.182;2023-05-10T01:33:44;5.20;59.30
17066;DHT22;23120;52.336;21.182;2023-05-10T01:36:19;5.20;59.30
17066;DHT22;23120;52.336;21.182;2023-05-10T01:38:55;5.20;59.50
17066;DHT22;23120;52.336;21.182;2023-05-10T01:41:29;5.10;59.40
17066;DHT22;23120;52.336;21.182;2023-05-10T01:44:07;5.10;59.70
17066;DHT22;23120;52.336;21.182;2023-05-10T01:46:38;5.10;59.60
17066;DHT22;23120;52.336;21.182;2023-05-10T01:49:08;5.10;59.60
17066;DHT22;23120;52.336;21.182;2023-05-10T01:51:39;5.10;60.10
17066;DHT22;23120;52.336;21.182;2023-05-10T01:54:09;5.00;59.90
17066;DHT22;23120;52.336;21.182;2023-05-10T01:56:37;5.00;60.00
17066;DHT22;23120;52.336;21.182;2023-05-10T01:59:08;5.00;60.40
17066;DHT22;23120;52.336;21.182;2023-05-10T02:01:36;5.00;60.70
17066;DHT22;23120;52.336;21.182;2023-05-10T02:04:10;4.90;60.90
17066;DHT22;23120;52.336;21.182;2023-05-10T02:06:38;4.90;61.00
17066;DHT22;23120;52.336;21.182;2023-05-10T02:09:06;4.90;61.30
17066;DHT22;23120;52.336;21.182;2023-05-10T02:11:34;4.90;61.40
17066;DHT22;23120;52.336;21.182;2023-05-10T02:14:05;4.90;61.40
17066;DHT22;23120;52.336;21.182;2023-05-10T02:16:35;4.90;61.00
17066;DHT22;23120;52.336;21.182;2023-05-10T02:19:06;4.80;61.00
17066;DHT22;23120;52.336;21.182;2023-05-10T02:21:35;4.80;61.00
17066;DHT22;23120;52.336;21.182;2023-05-10T02:24:03;4.80;61.10
17066;DHT22;23120;52.336;21.182;2023-05-10T02:26:31;4.80;61.20
17066;DHT22;23120;52.336;21.182;2023-05-10T02:29:01;4.80;61.50
17066;DHT22;23120;52.336;21.182;2023-05-10T02:31:30;4.70;61.50
17066;DHT22;23120;52.336;21.182;2023-05-10T02:33:59;4.70;61.50
17066;DHT22;23120;52.336;21.182;2023-05-10T02:36:29;4.70;61.50
17066;DHT22;23120;52.336;21.182;2023-05-10T02:38:58;4.70;61.60
17066;DHT22;23120;52.336;21.182;2023-05-10T02:41:27;4.60;61.80
17066;DHT22;23120;52.336;21.182;2023-05-10T02:43:59;4.60;62.00
17066;DHT22;23120;52.336;21.182;2023-05-10T02:46:28;4.60;62.50
17066;DHT22;23120;52.336;21.182;2023-05-10T02:48:57;4.60;62.50
17066;DHT22;23120;52.336;21.182;2023-05-10T02:51:30;4.60;63.20
17066;DHT22;23120;52.336;21.182;2023-05-10T02:54:03;4.50;63.00
17066;DHT22;23120;52.336;21.182;2023-05-10T02:56:36;4.60;63.70
17066;DHT22;23120;52.336;21.182;2023-05-10T02:59:05;4.50;63.00
17066;DHT22;23120;52.336;21.182;2023-05-10T03:01:32;4.50;63.10
17066;DHT22;23120;52.336;21.182;2023-05-10T03:03:59;4.40;63.50
17066;DHT22;23120;52.336;21.182;2023-05-10T03:06:26;4.50;63.10
17066;DHT22;23120;52.336;21.182;2023-05-10T03:08:54;4.50;62.80
17066;DHT22;23120;52.336;21.182;2023-05-10T03:11:42;4.40;63.60
17066;DHT22;23120;52.336;21.182;2023-05-10T03:14:22;4.50;63.50
17066;DHT22;23120;52.336;21.182;2023-05-10T03:17:00;4.40;63.20
17066;DHT22;23120;52.336;21.182;2023-05-10T03:19:45;4.40;63.20
17066;DHT22;23120;52.336;21.182;2023-05-10T03:22:20;4.40;63.90
17066;DHT22;23120;52.336;21.182;2023-05-10T03:24:51;4.40;63.50
17066;DHT22;23120;52.336;21.182;2023-05-10T03:27:25;4.40;63.30
17066;DHT22;23120;52.336;21.182;2023-05-10T03:29:54;4.40;63.50
17066;DHT22;23120;52.336;21.182;2023-05-10T03:32:26;4.40;63.10
17066;DHT22;23120;52.336;21.182;2023-05-10T03:34:56;4.40;63.70
17066;DHT22;23120;52.336;21.182;2023-05-10T03:37:26;4.40;63.70
17066;DHT22;23120;52.336;21.182;2023-05-10T03:39:55;4.50;63.90
17066;DHT22;23120;52.336;21.182;2023-05-10T03:42:22;4.40;63.50
17066;DHT22;23120;52.336;21.182;2023-05-10T03:44:50;4.40;63.80
17066;DHT22;23120;52.336;21.182;2023-05-10T03:47:18;4.50;64.00
17066;DHT22;23120;52.336;21.182;2023-05-10T03:49:45;4.50;64.60
17066;DHT22;23120;52.336;21.182;2023-05-10T03:52:13;4.50;64.80
17066;DHT22;23120;52.336;21.182;2023-05-10T03:54:40;4.60;63.90
17066;DHT22;23120;52.336;21.182;2023-05-10T03:57:15;4.60;65.00
17066;DHT22;23120;52.336;21.182;2023-05-10T03:59:51;4.60;64.50
17066;DHT22;23120;52.336;21.182;2023-05-10T04:02:18;4.60;64.30
17066;DHT22;23120;52.336;21.182;2023-05-10T04:04:45;4.60;64.70
17066;DHT22;23120;52.336;21.182;2023-05-10T04:07:12;4.70;65.00
17066;DHT22;23120;52.336;21.182;2023-05-10T04:09:39;4.70;64.90
17066;DHT22;23120;52.336;21.182;2023-05-10T04:12:06;4.70;64.90
17066;DHT22;23120;52.336;21.182;2023-05-10T04:14:35;4.80;64.40
17066;DHT22;23120;52.336;21.182;2023-05-10T04:17:03;4.80;64.80
17066;DHT22;23120;52.336;21.182;2023-05-10T04:19:31;4.80;64.60
17066;DHT22;23120;52.336;21.182;2023-05-10T04:22:01;4.90;64.30
17066;DHT22;23120;52.336;21.182;2023-05-10T04:24:33;4.90;64.90
17066;DHT22;23120;52.336;21.182;2023-05-10T04:27:01;5.00;64.50
17066;DHT22;23120;52.336;21.182;2023-05-10T04:29:30;5.00;64.70
17066;DHT22;23120;52.336;21.182;2023-05-10T04:32:03;5.10;64.90
17066;DHT22;23120;52.336;21.182;2023-05-10T04:34:30;5.10;64.30
17066;DHT22;23120;52.336;21.182;2023-05-10T04:36:59;5.10;64.40
17066;DHT22;23120;52.336;21.182;2023-05-10T04:39:29;5.20;64.50
17066;DHT22;23120;52.336;21.182;2023-05-10T04:41:56;5.30;64.10
17066;DHT22;23120;52.336;21.182;2023-05-10T04:44:23;5.30;64.50
17066;DHT22;23120;52.336;21.182;2023-05-10T04:46:50;5.40;64.70
17066;DHT22;23120;52.336;21.182;2023-05-10T04:49:19;5.40;64.40
17066;DHT22;23120;52.336;21.182;2023-05-10T04:51:47;5.50;64.10
17066;DHT22;23120;52.336;21.182;2023-05-10T04:54:20;5.50;64.50
17066;DHT22;23120;52.336;21.182;2023-05-10T04:56:52;5.60;64.90
17066;DHT22;23120;52.336;21.182;2023-05-10T04:59:20;5.70;65.60
17066;DHT22;23120;52.336;21.182;2023-05-10T05:02:08;5.80;65.00
17066;DHT22;23120;52.336;21.182;2023-05-10T05:04:36;5.90;66.00
17066;DHT22;23120;52.336;21.182;2023-05-10T05:07:07;6.20;66.40
17066;DHT22;23120;52.336;21.182;2023-05-10T05:09:42;6.50;65.70
17066;DHT22;23120;52.336;21.182;2023-05-10T05:12:11;6.70;65.80
17066;DHT22;23120;52.336;21.182;2023-05-10T05:14:49;7.00;65.50
17066;DHT22;23120;52.336;21.182;2023-05-10T05:17:19;7.30;65.60
17066;DHT22;23120;52.336;21.182;2023-05-10T05:19:50;7.50;65.40
17066;DHT22;23120;52.336;21.182;2023-05-10T05:22:20;7.70;64.90
17066;DHT22;23120;52.336;21.182;2023-05-10T05:24:55;7.90;64.50
17066;DHT22;23120;52.336;21.182;2023-05-10T05:27:31;8.20;64.30
17066;DHT22;23120;52.336;21.182;2023-05-10T05:30:01;8.40;64.10
17066;DHT22;23120;52.336;21.182;2023-05-10T05:32:30;8.60;63.80
17066;DHT22;23120;52.336;21.182;2023-05-10T05:35:40;8.70;63.40
17066;DHT22;23120;52.336;21.182;2023-05-10T05:38:33;8.90;63.10
17066;DHT22;23120;52.336;21.182;2023-05-10T05:41:30;9.20;62.70
17066;DHT22;23120;52.336;21.182;2023-05-10T05:44:01;9.30;62.60
17066;DHT22;23120;52.336;21.182;2023-05-10T05:46:28;9.50;62.90
17066;DHT22;23120;52.336;21.182;2023-05-10T05:48:57;9.70;62.50
17066;DHT22;23120;52.336;21.182;2023-05-10T05:51:27;9.90;62.70
17066;DHT22;23120;52.336;21.182;2023-05-10T05:54:02;10.10;61.20
17066;DHT22;23120;52.336;21.182;2023-05-10T05:56:35;10.40;61.10
17066;DHT22;23120;52.336;21.182;2023-05-10T05:59:42;10.60;60.80
17066;DHT22;23120;52.336;21.182;2023-05-10T06:02:10;10.80;60.60
17066;DHT22;23120;52.336;21.182;2023-05-10T06:04:50;11.00;59.40
17066;DHT22;23120;52.336;21.182;2023-05-10T06:07:38;11.30;59.20
17066;DHT22;23120;52.336;21.182;2023-05-10T06:10:41;11.40;58.40
17066;DHT22;23120;52.336;21.182;2023-05-10T06:13:15;11.60;58.00
17066;DHT22;23120;52.336;21.182;2023-05-10T06:15:47;11.80;58.30
17066;DHT22;23120;52.336;21.182;2023-05-10T06:18:28;11.90;58.10
17066;DHT22;23120;52.336;21.182;2023-05-10T06:20:55;12.20;58.20
17066;DHT22;23120;52.336;21.182;2023-05-10T06:23:45;12.40;57.40
17066;DHT22;23120;52.336;21.182;2023-05-10T06:26:57;12.60;56.40
17066;DHT22;23120;52.336;21.182;2023-05-10T06:29:35;12.70;56.60
17066;DHT22;23120;52.336;21.182;2023-05-10T06:32:30;12.90;56.60
17066;DHT22;23120;52.336;21.182;2023-05-10T06:34:57;13.10;55.10
17066;DHT22;23120;52.336;21.182;2023-05-10T06:37:24;13.30;55.10
17066;DHT22;23120;52.336;21.182;2023-05-10T06:39:53;13.40;55.40
17066;DHT22;23120;52.336;21.182;2023-05-10T06:42:22;13.50;54.60
17066;DHT22;23120;52.336;21.182;2023-05-10T06:44:51;13.70;55.00
17066;DHT22;23120;52.336;21.182;2023-05-10T06:47:19;13.80;54.60
17066;DHT22;23120;52.336;21.182;2023-05-10T06:49:45;14.00;53.60
17066;DHT22;23120;52.336;21.182;2023-05-10T06:52:15;14.20;52.20
17066;DHT22;23120;52.336;21.182;2023-05-10T06:54:46;14.30;50.80
17066;DHT22;23120;52.336;21.182;2023-05-10T06:57:14;14.40;51.10
17066;DHT22;23120;52.336;21.182;2023-05-10T06:59:41;14.60;50.90
17066;DHT22;23120;52.336;21.182;2023-05-10T07:02:08;14.70;50.70
17066;DHT22;23120;52.336;21.182;2023-05-10T07:04:37;14.80;51.40
17066;DHT22;23120;52.336;21.182;2023-05-10T07:07:24;14.80;51.10
17066;DHT22;23120;52.336;21.182;2023-05-10T07:09:53;15.00;51.00
17066;DHT22;23120;52.336;21.182;2023-05-10T07:12:23;15.10;50.40
17066;DHT22;23120;52.336;21.182;2023-05-10T07:14:52;15.40;49.30
17066;DHT22;23120;52.336;21.182;2023-05-10T07:17:25;15.50;48.10
17066;DHT22;23120;52.336;21.182;2023-05-10T07:20:05;15.50;45.70
17066;DHT22;23120;52.336;21.182;2023-05-10T07:22:32;15.60;47.50
17066;DHT22;23120;52.336;21.182;2023-05-10T07:24:59;15.60;47.50
17066;DHT22;23120;52.336;21.182;2023-05-10T07:27:27;15.80;46.20
17066;DHT22;23120;52.336;21.182;2023-05-10T07:30:02;15.90;46.20
17066;DHT22;23120;52.336;21.182;2023-05-10T07:32:29;16.00;45.80
17066;DHT22;23120;52.336;21.182;2023-05-10T07:34:59;16.00;44.10
17066;DHT22;23120;52.336;21.182;2023-05-10T07:37:29;16.10;44.50
17066;DHT22;23120;52.336;21.182;2023-05-10T07:39:55;16.20;44.40
17066;DHT22;23120;52.336;21.182;2023-05-10T07:42:22;16.20;42.20
17066;DHT22;23120;52.336;21.182;2023-05-10T07:44:51;16.30;43.10
17066;DHT22;23120;52.336;21.182;2023-05-10T07:47:21;16.30;43.00
17066;DHT22;23120;52.336;21.182;2023-05-10T07:49:48;16.40;43.30
17066;DHT22;23120;52.336;21.182;2023-05-10T07:52:15;16.50;44.20
17066;DHT22;23120;52.336;21.182;2023-05-10T07:54:41;16.60;41.50
17066;DHT22;23120;52.336;21.182;2023-05-10T07:57:08;16.60;42.10
17066;DHT22;23120;52.336;21.182;2023-05-10T07:59:35;16.70;42.80
17066;DHT22;23120;52.336;21.182;2023-05-10T08:02:07;16.80;42.80
17066;DHT22;23120;52.336;21.182;2023-05-10T08:04:35;16.90;41.50
17066;DHT22;23120;52.336;21.182;2023-05-10T08:07:02;17.00;40.80
17066;DHT22;23120;52.336;21.182;2023-05-10T08:09:32;17.10;40.30
17066;DHT22;23120;52.336;21.182;2023-05-10T08:11:59;17.10;41.90
17066;DHT22;23120;52.336;21.182;2023-05-10T08:14:27;17.10;42.00
17066;DHT22;23120;52.336;21.182;2023-05-10T08:16:55;17.20;42.70
17066;DHT22;23120;52.336;21.182;2023-05-10T08:19:27;17.30;41.30
17066;DHT22;23120;52.336;21.182;2023-05-10T08:21:54;17.30;41.10
17066;DHT22;23120;52.336;21.182;2023-05-10T08:24:22;17.40;41.50
17066;DHT22;23120;52.336;21.182;2023-05-10T08:26:49;17.50;41.90
17066;DHT22;23120;52.336;21.182;2023-05-10T08:29:16;17.60;41.60
17066;DHT22;23120;52.336;21.182;2023-05-10T08:31:51;17.70;41.20
17066;DHT22;23120;52.336;21.182;2023-05-10T08:34:18;17.80;41.70
17066;DHT22;23120;52.336;21.182;2023-05-10T08:36:46;18.00;41.20
17066;DHT22;23120;52.336;21.182;2023-05-10T08:39:14;18.00;41.90
17066;DHT22;23120;52.336;21.182;2023-05-10T08:41:44;18.10;40.40
17066;DHT22;23120;52.336;21.182;2023-05-10T08:44:11;18.10;39.50
17066;DHT22;23120;52.336;21.182;2023-05-10T08:46:41;18.20;38.60
17066;DHT22;23120;52.336;21.182;2023-05-10T08:49:14;18.20;40.90
17066;DHT22;23120;52.336;21.182;2023-05-10T08:51:50;18.40;40.30
17066;DHT22;23120;52.336;21.182;2023-05-10T08:54:18;18.40;40.70
17066;DHT22;23120;52.336;21.182;2023-05-10T08:56:45;18.50;39.80
17066;DHT22;23120;52.336;21.182;2023-05-10T08:59:13;18.60;39.60
17066;DHT22;23120;52.336;21.182;2023-05-10T09:01:43;18.70;40.00
17066;DHT22;23120;52.336;21.182;2023-05-10T09:04:12;18.80;38.80
17066;DHT22;23120;52.336;21.182;2023-05-10T09:06:39;18.80;40.10
17066;DHT22;23120;52.336;21.182;2023-05-10T09:09:07;18.80;39.30
17066;DHT22;23120;52.336;21.182;2023-05-10T09:11:34;18.90;39.30
17066;DHT22;23120;52.336;21.182;2023-05-10T09:14:01;19.10;38.80
17066;DHT22;23120;52.336;21.182;2023-05-10T09:16:29;19.10;39.60
17066;DHT22;23120;52.336;21.182;2023-05-10T09:18:56;19.20;38.80
17066;DHT22;23120;52.336;21.182;2023-05-10T09:21:22;19.30;39.20
17066;DHT22;23120;52.336;21.182;2023-05-10T09:23:49;19.40;39.90
17066;DHT22;23120;52.336;21.182;2023-05-10T09:26:23;19.60;40.70
17066;DHT22;23120;52.336;21.182;2023-05-10T09:28:52;19.70;39.60
17066;DHT22;23120;52.336;21.182;2023-05-10T09:31:19;19.80;39.00
17066;DHT22;23120;52.336;21.182;2023-05-10T09:33:46;19.90;39.80
17066;DHT22;23120;52.336;21.182;2023-05-10T09:36:14;20.00;39.90
17066;DHT22;23120;52.336;21.182;2023-05-10T09:38:46;20.10;39.50
17066;DHT22;23120;52.336;21.182;2023-05-10T09:41:17;20.30;40.60
17066;DHT22;23120;52.336;21.182;2023-05-10T09:43:46;20.40;40.60
17066;DHT22;23120;52.336;21.182;2023-05-10T09:46:13;20.50;40.50
17066;DHT22;23120;52.336;21.182;2023-05-10T09:48:42;20.50;39.90
17066;DHT22;23120;52.336;21.182;2023-05-10T09:51:35;20.60;38.40
17066;DHT22;23120;52.336;21.182;2023-05-10T09:54:10;20.50;38.00
17066;DHT22;23120;52.336;21.182;2023-05-10T09:56:37;20.60;39.70
17066;DHT22;23120;52.336;21.182;2023-05-10T09:59:09;20.70;39.70
17066;DHT22;23120;52.336;21.182;2023-05-10T10:01:36;20.80;39.40
17066;DHT22;23120;52.336;21.182;2023-05-10T10:04:04;20.90;38.50
17066;DHT22;23120;52.336;21.182;2023-05-10T10:06:35;20.80;38.50
17066;DHT22;23120;52.336;21.182;2023-05-10T10:09:05;20.90;38.30
17066;DHT22;23120;52.336;21.182;2023-05-10T10:11:34;21.20;38.90
17066;DHT22;23120;52.336;21.182;2023-05-10T10:14:02;21.20;35.80
17066;DHT22;23120;52.336;21.182;2023-05-10T10:16:32;20.80;34.10
17066;DHT22;23120;52.336;21.182;2023-05-10T10:19:00;20.60;34.60
17066;DHT22;23120;52.336;21.182;2023-05-10T10:21:27;20.40;35.80
17066;DHT22;23120;52.336;21.182;2023-05-10T10:23:54;20.60;36.90
17066;DHT22;23120;52.336;21.182;2023-05-10T10:26:22;20.80;37.10
17066;DHT22;23120;52.336;21.182;2023-05-10T10:28:52;21.00;37.70
17066;DHT22;23120;52.336;21.182;2023-05-10T10:31:27;21.30;38.60
17066;DHT22;23120;52.336;21.182;2023-05-10T10:34:05;21.40;38.80
17066;DHT22;23120;52.336;21.182;2023-05-10T10:36:32;21.70;38.60
17066;DHT22;23120;52.336;21.182;2023-05-10T10:39:09;21.80;38.00
17066;DHT22;23120;52.336;21.182;2023-05-10T10:41:38;21.90;37.10
17066;DHT22;23120;52.336;21.182;2023-05-10T10:44:32;22.00;35.30
17066;DHT22;23120;52.336;21.182;2023-05-10T10:47:02;22.00;36.20
17066;DHT22;23120;52.336;21.182;2023-05-10T10:49:37;22.10;37.00
17066;DHT22;23120;52.336;21.182;2023-05-10T10:52:31;22.20;36.60
17066;DHT22;23120;52.336;21.182;2023-05-10T10:55:01;22.20;36.70
17066;DHT22;23120;52.336;21.182;2023-05-10T10:57:43;22.30;36.70
17066;DHT22;23120;52.336;21.182;2023-05-10T11:03:08;22.30;36.40
17066;DHT22;23120;52.336;21.182;2023-05-10T11:05:39;22.20;36.50
17066;DHT22;23120;52.336;21.182;2023-05-10T11:08:12;22.30;36.80
17066;DHT22;23120;52.336;21.182;2023-05-10T11:10:40;22.40;36.90
17066;DHT22;23120;52.336;21.182;2023-05-10T11:13:27;22.60;37.30
17066;DHT22;23120;52.336;21.182;2023-05-10T11:15:54;22.70;37.10
17066;DHT22;23120;52.336;21.182;2023-05-10T11:18:24;22.80;37.20
17066;DHT22;23120;52.336;21.182;2023-05-10T11:20:56;22.90;36.80
17066;DHT22;23120;52.336;21.182;2023-05-10T11:23:23;23.00;37.50
17066;DHT22;23120;52.336;21.182;2023-05-10T11:25:50;23.10;37.80
17066;DHT22;23120;52.336;21.182;2023-05-10T11:28:18;23.20;36.80
17066;DHT22;23120;52.336;21.182;2023-05-10T11:30:45;23.20;35.70
17066;DHT22;23120;52.336;21.182;2023-05-10T11:33:18;23.20;36.30
17066;DHT22;23120;52.336;21.182;2023-05-10T11:35:46;23.30;36.80
17066;DHT22;23120;52.336;21.182;2023-05-10T11:38:14;23.30;36.80
17066;DHT22;23120;52.336;21.182;2023-05-10T11:40:41;23.40;36.40
17066;DHT22;23120;52.336;21.182;2023-05-10T11:43:09;23.50;36.70
17066;DHT22;23120;52.336;21.182;2023-05-10T11:45:37;23.40;35.10
17066;DHT22;23120;52.336;21.182;2023-05-10T11:48:05;23.50;36.10
17066;DHT22;23120;52.336;21.182;2023-05-10T11:50:32;23.50;35.60
17066;DHT22;23120;52.336;21.182;2023-05-10T11:52:59;23.60;35.50
17066;DHT22;23120;52.336;21.182;2023-05-10T11:55:27;23.60;36.10
17066;DHT22;23120;52.336;21.182;2023-05-10T11:58:01;23.60;35.90
17066;DHT22;23120;52.336;21.182;2023-05-10T12:00:29;23.70;36.30
17066;DHT22;23120;52.336;21.182;2023-05-10T12:02:56;23.60;35.60
17066;DHT22;23120;52.336;21.182;2023-05-10T12:05:24;23.70;35.70
17066;DHT22;23120;52.336;21.182;2023-05-10T12:07:51;23.60;35.30
17066;DHT22;23120;52.336;21.182;2023-05-10T12:10:26;23.70;36.40
17066;DHT22;23120;52.336;21.182;2023-05-10T12:12:53;23.70;35.60
17066;DHT22;23120;52.336;21.182;2023-05-10T12:15:23;23.70;35.60
17066;DHT22;23120;52.336;21.182;2023-05-10T12:17:51;23.60;35.00
17066;DHT22;23120;52.336;21.182;2023-05-10T12:20:19;23.70;35.80
17066;DHT22;23120;52.336;21.182;2023-05-10T12:22:47;23.70;36.00
17066;DHT22;23120;52.336;21.182;2023-05-10T12:25:16;23.70;36.20
17066;DHT22;23120;52.336;21.182;2023-05-10T12:27:52;23.70;35.90
17066;DHT22;23120;52.336;21.182;2023-05-10T12:30:24;23.70;37.00
17066;DHT22;23120;52.336;21.182;2023-05-10T12:32:51;23.80;37.30
17066;DHT22;23120;52.336;21.182;2023-05-10T12:35:19;23.90;37.80
17066;DHT22;23120;52.336;21.182;2023-05-10T12:37:47;24.10;38.30
17066;DHT22;23120;52.336;21.182;2023-05-10T12:40:15;24.20;38.00
17066;DHT22;23120;52.336;21.182;2023-05-10T12:42:42;24.20;36.80
17066;DHT22;23120;52.336;21.182;2023-05-10T12:45:12;24.20;36.20
17066;DHT22;23120;52.336;21.182;2023-05-10T12:47:45;24.20;36.80
17066;DHT22;23120;52.336;21.182;2023-05-10T12:50:26;24.30;36.90
17066;DHT22;23120;52.336;21.182;2023-05-10T12:52:53;24.50;37.30
17066;DHT22;23120;52.336;21.182;2023-05-10T12:55:31;24.60;37.00
17066;DHT22;23120;52.336;21.182;2023-05-10T12:57:58;24.60;36.30
17066;DHT22;23120;52.336;21.182;2023-05-10T13:00:30;24.70;37.10
17066;DHT22;23120;52.336;21.182;2023-05-10T13:02:59;24.90;36.30
17066;DHT22;23120;52.336;21.182;2023-05-10T13:05:28;24.90;35.90
17066;DHT22;23120;52.336;21.182;2023-05-10T13:07:55;24.90;35.90
17066;DHT22;23120;52.336;21.182;2023-05-10T13:10:22;25.00;36.40
17066;DHT22;23120;52.336;21.182;2023-05-10T13:12:51;25.10;36.80
17066;DHT22;23120;52.336;21.182;2023-05-10T13:15:18;25.20;37.30
17066;DHT22;23120;52.336;21.182;2023-05-10T13:17:55;25.30;36.80
17066;DHT22;23120;52.336;21.182;2023-05-10T13:20:23;25.40;36.00
17066;DHT22;23120;52.336;21.182;2023-05-10T13:22:52;25.40;36.10
17066;DHT22;23120;52.336;21.182;2023-05-10T13:25:19;25.40;34.90
17066;DHT22;23120;52.336;21.182;2023-05-10T13:27:50;25.50;36.30
17066;DHT22;23120;52.336;21.182;2023-05-10T13:30:20;25.60;35.40
17066;DHT22;23120;52.336;21.182;2023-05-10T13:32:48;25.70;36.50
17066;DHT22;23120;52.336;21.182;2023-05-10T13:35:25;25.60;35.40
17066;DHT22;23120;52.336;21.182;2023-05-10T13:37:53;25.70;35.20
17066;DHT22;23120;52.336;21.182;2023-05-10T13:40:23;25.70;34.80
17066;DHT22;23120;52.336;21.182;2023-05-10T13:42:50;25.70;34.50
17066;DHT22;23120;52.336;21.182;2023-05-10T13:45:18;25.90;35.00
17066;DHT22;23120;52.336;21.182;2023-05-10T13:47:45;26.00;35.00
17066;DHT22;23120;52.336;21.182;2023-05-10T13:50:12;26.10;35.40
17066;DHT22;23120;52.336;21.182;2023-05-10T13:52:41;26.20;33.70
17066;DHT22;23120;52.336;21.182;2023-05-10T13:55:08;26.30;34.70
17066;DHT22;23120;52.336;21.182;2023-05-10T13:57:38;26.30;33.40
17066;DHT22;23120;52.336;21.182;2023-05-10T14:00:06;26.40;33.00
17066;DHT22;23120;52.336;21.182;2023-05-10T14:02:34;26.40;33.40
17066;DHT22;23120;52.336;21.182;2023-05-10T14:05:03;26.50;33.50
17066;DHT22;23120;52.336;21.182;2023-05-10T14:07:31;26.50;33.60
17066;DHT22;23120;52.336;21.182;2023-05-10T14:10:00;26.50;32.40
17066;DHT22;23120;52.336;21.182;2023-05-10T14:12:28;26.80;34.80
17066;DHT22;23120;52.336;21.182;2023-05-10T14:14:55;26.90;34.70
17066;DHT22;23120;52.336;21.182;2023-05-10T14:17:23;27.00;33.80
17066;DHT22;23120;52.336;21.182;2023-05-10T14:19:51;27.00;32.30
17066;DHT22;23120;52.336;21.182;2023-05-10T14:22:17;27.10;33.00
17066;DHT22;23120;52.336;21.182;2023-05-10T14:24:44;27.00;32.60
17066;DHT22;23120;52.336;21.182;2023-05-10T14:27:14;27.20;33.00
17066;DHT22;23120;52.336;21.182;2023-05-10T14:29:41;27.10;31.70
17066;DHT22;23120;52.336;21.182;2023-05-10T14:32:08;27.10;31.80
17066;DHT22;23120;52.336;21.182;2023-05-10T14:34:35;27.10;30.60
17066;DHT22;23120;52.336;21.182;2023-05-10T14:37:02;27.10;31.40
17066;DHT22;23120;52.336;21.182;2023-05-10T14:39:30;27.20;32.30
17066;DHT22;23120;52.336;21.182;2023-05-10T14:41:57;27.30;32.00
17066;DHT22;23120;52.336;21.182;2023-05-10T14:44:25;27.20;31.30
17066;DHT22;23120;52.336;21.182;2023-05-10T14:46:53;27.30;30.00
17066;DHT22;23120;52.336;21.182;2023-05-10T14:49:22;27.10;30.00
17066;DHT22;23120;52.336;21.182;2023-05-10T14:51:51;27.20;30.70
17066;DHT22;23120;52.336;21.182;2023-05-10T14:54:18;27.40;32.10
17066;DHT22;23120;52.336;21.182;2023-05-10T14:56:46;27.50;33.20
17066;DHT22;23120;52.336;21.182;2023-05-10T14:59:15;27.60;31.90
17066;DHT22;23120;52.336;21.182;2023-05-10T15:01:44;27.60;31.90
17066;DHT22;23120;52.336;21.182;2023-05-10T15:04:12;27.60;31.20
17066;DHT22;23120;52.336;21.182;2023-05-10T15:06:42;27.60;31.40
17066;DHT22;23120;52.336;21.182;2023-05-10T15:09:10;27.60;31.10
17066;DHT22;23120;52.336;21.182;2023-05-10T15:11:37;27.70;31.50
17066;DHT22;23120;52.336;21.182;2023-05-10T15:14:04;27.70;31.60
17066;DHT22;23120;52.336;21.182;2023-05-10T15:16:32;27.80;32.00
17066;DHT22;23120;52.336;21.182;2023-05-10T15:19:00;28.00;32.40
17066;DHT22;23120;52.336;21.182;2023-05-10T15:21:27;28.10;32.50
17066;DHT22;23120;52.336;21.182;2023-05-10T15:23:54;28.30;31.40
17066;DHT22;23120;52.336;21.182;2023-05-10T15:26:21;28.20;31.00
17066;DHT22;23120;52.336;21.182;2023-05-10T15:28:49;28.30;32.60
17066;DHT22;23120;52.336;21.182;2023-05-10T15:31:16;28.40;31.50
17066;DHT22;23120;52.336;21.182;2023-05-10T15:33:43;28.40;31.50
17066;DHT22;23120;52.336;21.182;2023-05-10T15:36:11;28.30;30.40
17066;DHT22;23120;52.336;21.182;2023-05-10T15:38:38;27.60;29.50
17066;DHT22;23120;52.336;21.182;2023-05-10T15:41:05;26.80;29.00
17066;DHT22;23120;52.336;21.182;2023-05-10T15:43:32;26.70;30.90
17066;DHT22;23120;52.336;21.182;2023-05-10T15:45:59;26.70;29.00
17066;DHT22;23120;52.336;21.182;2023-05-10T15:48:25;26.40;30.00